Time;durP1;ratioP1;P1;durP2;ratioP2;P2;SDS_P1;SDS_P2;PMS_P1;PMS_P2;Temp;Humidity;BMP_temperature;BMP_pressure;BME280_temperature;BME280_humidity;BME280_pressure;Samples;Min_cycle;Max_cycle;Signal;HPM_P1;HPM_P2
2023/01/23 00:00:00;;;;;;;13.02;7.97;;;;;;;15.71;45.60;94232.78;4939675;28;20043;-93
2023/01/23 00:02:25;;;;;;;12.75;9.65;;;;;;;15.70;45.89;94236.72;4955412;28;20097;-94
2023/01/23 00:04:51;;;;;;;9.10;6.28;;;;;;;15.70;45.13;94242.94;4940084;28;20456;-94
2023/01/23 00:07:16;;;;;;;12.68;8.77;;;;;;;15.75;45.52;94225.16;4958453;28;20035;-93
2023/01/23 00:09:42;;;;;;;14.70;10.18;;;;;;;15.75;45.69;94225.91;4939863;28;20027;-93
2023/01/23 00:12:07;;;;;;;23.55;14.85;;;;;;;15.82;46.32;94224.75;4952251;28;20121;-93
2023/01/23 00:14:33;;;;;;;10.48;6.82;;;;;;;15.73;45.40;94233.81;4971605;28;20042;-93
2023/01/23 00:16:58;;;;;;;13.90;9.20;;;;;;;15.75;45.87;94225.91;4952733;28;20038;-93
2023/01/23 00:19:23;;;;;;;23.40;16.05;;;;;;;15.83;46.86;94217.31;4935120;28;20039;-94
2023/01/23 00:21:49;;;;;;;9.95;7.13;;;;;;;15.72;45.26;94217.94;4949352;28;20044;-93
2023/01/23 00:24:14;;;;;;;14.35;10.52;;;;;;;15.80;45.10;94218.28;4954598;28;20034;-93
2023/01/23 00:26:40;;;;;;;17.42;11.52;;;;;;;15.79;46.52;94212.09;4956261;28;20044;-94
2023/01/23 00:29:06;;;;;;;9.40;7.05;;;;;;;15.72;45.31;94209.75;4943273;28;20097;-94
2023/01/23 00:31:34;;;;;;;19.98;13.88;;;;;;;15.82;46.51;94211.13;4949094;28;20055;-93
2023/01/23 00:34:02;;;;;;;12.73;8.38;;;;;;;15.73;45.59;94212.00;4956564;28;20399;-93
2023/01/23 00:36:31;;;;;;;13.48;8.90;;;;;;;15.74;45.49;94220.94;4955236;28;20057;-94
2023/01/23 00:38:57;;;;;;;9.45;7.13;;;;;;;15.70;45.39;94220.38;4952663;28;20063;-93
2023/01/23 00:41:23;;;;;;;20.92;13.85;;;;;;;15.82;45.10;94218.56;4954549;28;20081;-93
2023/01/23 00:43:50;;;;;;;24.05;16.83;;;;;;;15.80;46.51;94221.03;4971720;28;20338;-94
2023/01/23 00:46:16;;;;;;;15.07;9.90;;;;;;;15.76;45.86;94218.50;4956359;28;20035;-94
2023/01/23 00:48:41;;;;;;;16.73;10.82;;;;;;;15.75;45.42;94223.19;4970990;28;20050;-94
2023/01/23 00:51:07;;;;;;;12.07;8.68;;;;;;;15.74;45.05;94220.94;4962240;28;20043;-93
2023/01/23 00:53:33;;;;;;;18.92;12.88;;;;;;;15.75;45.37;94227.91;4955707;28;20051;-93
2023/01/23 00:55:58;;;;;;;16.58;10.73;;;;;;;15.74;45.72;94229.13;4954754;28;20039;-93
2023/01/23 00:58:24;;;;;;;9.77;7.57;;;;;;;15.72;45.75;94215.97;4971392;28;20042;-94
2023/01/23 01:00:49;;;;;;;20.55;12.35;;;;;;;15.74;45.66;94226.38;4955475;28;20038;-93
2023/01/23 01:03:15;;;;;;;12.43;8.00;;;;;;;15.71;44.87;94240.97;4963400;28;20039;-93
2023/01/23 01:05:41;;;;;;;10.60;7.50;;;;;;;15.69;45.26;94227.06;4954565;28;20039;-94
2023/01/23 01:08:06;;;;;;;14.02;8.85;;;;;;;15.76;45.45;94224.69;4938602;28;20046;-93
2023/01/23 01:10:32;;;;;;;25.67;16.25;;;;;;;15.81;46.32;94230.69;4954768;28;20047;-93
2023/01/23 01:12:59;;;;;;;25.83;15.55;;;;;;;15.74;45.58;94223.66;4954775;28;20046;-93
2023/01/23 01:15:25;;;;;;;21.38;14.85;;;;;;;15.78;45.47;94221.50;4955159;28;20039;-93
2023/01/23 01:17:53;;;;;;;13.55;9.77;;;;;;;15.76;45.72;94234.84;4952864;28;20047;-93
2023/01/23 01:20:22;;;;;;;13.70;9.45;;;;;;;15.75;45.15;94230.63;4954534;28;20035;-93
2023/01/23 01:22:48;;;;;;;17.63;11.38;;;;;;;15.79;46.18;94222.25;4936089;29;20049;-93
2023/01/23 01:25:14;;;;;;;10.27;6.82;;;;;;;15.69;45.28;94233.25;4975033;28;20567;-94
2023/01/23 01:27:39;;;;;;;10.60;7.13;;;;;;;15.69;45.36;94225.06;4955020;28;20050;-93
2023/01/23 01:30:05;;;;;;;18.85;11.40;;;;;;;15.75;46.18;94234.09;4970343;28;20322;-93
2023/01/23 01:32:31;;;;;;;11.50;8.48;;;;;;;15.71;45.31;94235.50;4957648;28;20043;-93
2023/01/23 01:34:57;;;;;;;15.07;9.63;;;;;;;15.71;45.30;94227.34;4954798;28;20096;-93
2023/01/23 01:37:24;;;;;;;17.65;11.93;;;;;;;15.77;45.70;94237.09;4950764;28;20569;-93
2023/01/23 01:39:49;;;;;;;14.85;9.95;;;;;;;15.71;45.53;94236.25;4971124;28;20133;-93
2023/01/23 01:42:15;;;;;;;15.43;10.25;;;;;;;15.72;45.42;94226.09;4953490;28;20126;-93
2023/01/23 01:44:59;;;;;;;17.67;12.05;;;;;;;15.81;46.06;94230.69;4938374;28;20049;-93
2023/01/23 01:47:24;;;;;;;11.95;7.68;;;;;;;15.76;45.13;94223.94;4954384;28;20045;-93
2023/01/23 01:49:51;;;;;;;9.98;7.35;;;;;;;15.70;45.27;94231.28;4954826;28;20035;-93
2023/01/23 01:52:17;;;;;;;10.20;7.45;;;;;;;15.68;45.28;94237.19;4953584;28;20097;-93
2023/01/23 01:54:46;;;;;;;19.05;12.07;;;;;;;15.74;46.62;94237.28;4938168;28;20035;-94
2023/01/23 01:57:20;;;;;;;10.93;7.13;;;;;;;15.70;45.30;94239.47;4938084;28;20031;-94
2023/01/23 01:59:53;;;;;;;16.17;10.07;;;;;;;15.72;45.32;94251.41;4938156;28;20031;-93
2023/01/23 02:02:23;;;;;;;29.55;18.35;;;;;;;15.79;46.30;94244.81;4953261;28;20041;-93
2023/01/23 02:04:51;;;;;;;16.13;10.75;;;;;;;15.75;45.39;94245.00;4935320;29;20042;-93
2023/01/23 02:07:21;;;;;;;28.90;19.08;;;;;;;15.82;46.79;94251.25;4953081;28;20047;-94
2023/01/23 02:09:46;;;;;;;12.07;8.18;;;;;;;15.71;45.26;94241.72;4970173;28;20482;-93
2023/01/23 02:12:12;;;;;;;9.13;7.05;;;;;;;15.66;45.23;94238.91;4933714;28;20039;-93
2023/01/23 02:14:37;;;;;;;14.13;9.98;;;;;;;15.73;45.82;94236.53;4958710;28;20041;-94
2023/01/23 02:17:02;;;;;;;21.20;14.15;;;;;;;15.78;46.28;94235.13;4944845;28;20045;-91
2023/01/23 02:20:01;;;;;;;21.27;12.85;;;;;;;15.76;46.00;94226.66;4953520;28;20035;-93
2023/01/23 02:22:49;;;;;;;12.30;8.52;;;;;;;15.75;45.20;94225.16;4968603;28;20043;-93
2023/01/23 02:25:40;;;;;;;13.55;8.10;;;;;;;15.70;45.10;94217.66;4969864;28;20482;-93
2023/01/23 02:28:06;;;;;;;12.43;7.88;;;;;;;15.68;45.33;94218.13;4955377;28;20043;-93
2023/01/23 02:30:32;;;;;;;12.85;8.18;;;;;;;15.69;45.21;94206.00;4953560;28;20050;-94
2023/01/23 02:33:19;;;;;;;11.38;7.90;;;;;;;15.71;45.68;94210.97;4953517;28;20046;-93
2023/01/23 02:35:44;;;;;;;12.75;9.93;;;;;;;15.70;45.46;94217.66;4971441;28;20125;-93
2023/01/23 02:38:11;;;;;;;10.65;7.32;;;;;;;15.62;45.27;94222.72;4937045;28;20031;-93
2023/01/23 02:40:38;;;;;;;28.65;18.42;;;;;;;15.77;47.02;94228.16;4936225;28;20089;-93
2023/01/23 02:43:03;;;;;;;19.00;12.38;;;;;;;15.69;45.37;94235.22;4968789;28;20050;-92
2023/01/23 02:45:30;;;;;;;35.50;24.13;;;;;;;15.78;46.95;94221.50;4937324;28;20034;-93
2023/01/23 02:47:55;;;;;;;18.92;13.20;;;;;;;15.75;46.80;94223.19;4937711;28;20043;-93
2023/01/23 02:50:21;;;;;;;16.83;10.68;;;;;;;15.71;45.30;94228.09;4969434;28;20093;-93
2023/01/23 02:52:48;;;;;;;10.23;7.28;;;;;;;15.67;45.64;94226.78;4952808;28;20047;-93
2023/01/23 02:55:13;;;;;;;13.07;9.15;;;;;;;15.70;45.38;94217.66;4967938;28;20106;-93
2023/01/23 02:57:39;;;;;;;18.00;11.52;;;;;;;15.69;45.50;94218.88;4936616;28;20118;-94
2023/01/23 03:00:19;;;;;;;17.55;11.27;;;;;;;15.75;45.05;94217.00;4969327;28;20058;-92
2023/01/23 03:02:48;;;;;;;9.85;7.43;;;;;;;15.67;45.27;94218.59;4969051;28;20122;-93
2023/01/23 03:05:13;;;;;;;12.50;8.27;;;;;;;15.69;45.11;94224.31;4969035;28;20512;-93
2023/01/23 03:07:39;;;;;;;10.50;7.75;;;;;;;15.68;45.10;94217.38;4968304;28;20035;-93
2023/01/23 03:10:06;;;;;;;12.48;9.23;;;;;;;15.71;45.21;94224.59;4953425;28;20250;-93
2023/01/23 03:12:31;;;;;;;12.45;9.32;;;;;;;15.71;45.94;94227.34;4952159;28;20066;-93
2023/01/23 03:14:57;;;;;;;11.75;7.95;;;;;;;15.69;45.12;94216.16;4976945;28;20061;-93
2023/01/23 03:17:23;;;;;;;12.57;8.63;;;;;;;15.68;45.38;94220.09;4939821;28;20046;-93
2023/01/23 03:19:48;;;;;;;20.60;12.18;;;;;;;15.74;45.63;94208.06;4937262;28;20045;-93
2023/01/23 03:22:14;;;;;;;12.48;8.50;;;;;;;15.67;45.11;94189.38;4932544;28;20408;-93
2023/01/23 03:24:39;;;;;;;15.13;8.80;;;;;;;15.67;45.24;94188.63;4968996;28;20658;-93
2023/01/23 03:27:05;;;;;;;12.00;8.20;;;;;;;15.70;45.23;94182.22;4936657;28;20494;-93
2023/01/23 03:32:15;;;;;;;13.43;8.73;;;;;;;15.74;45.56;94188.97;4952890;28;20038;-93
2023/01/23 03:34:41;;;;;;;10.45;7.70;;;;;;;15.68;45.32;94181.94;4940496;28;20031;-94
2023/01/23 03:37:09;;;;;;;11.35;7.88;;;;;;;15.65;45.03;94180.91;4964674;28;20053;-94
2023/01/23 03:42:19;;;;;;;11.70;8.15;;;;;;;15.69;44.83;94186.16;4982023;28;20045;-93
2023/01/23 03:44:44;;;;;;;9.75;6.93;;;;;;;15.68;44.88;94201.75;4968484;28;20406;-93
2023/01/23 03:47:10;;;;;;;11.02;7.78;;;;;;;15.65;45.08;94188.34;4968342;28;20070;-94
2023/01/23 03:49:35;;;;;;;11.60;8.20;;;;;;;15.66;45.37;94184.38;4952291;28;20444;-94
2023/01/23 03:52:01;;;;;;;18.48;11.43;;;;;;;15.70;46.11;94188.41;4950290;28;20499;-93
2023/01/23 03:54:26;;;;;;;11.48;7.13;;;;;;;15.66;45.39;94190.59;4968146;28;20046;-94
2023/01/23 03:56:53;;;;;;;10.65;8.00;;;;;;;15.67;45.04;94194.81;4952199;28;20034;-93
2023/01/23 03:59:18;;;;;;;18.83;12.45;;;;;;;15.72;45.23;94191.44;4951381;28;20034;-93
2023/01/23 04:01:43;;;;;;;25.13;16.35;;;;;;;15.77;46.38;94195.47;4936843;28;20042;-93
2023/01/23 04:04:09;;;;;;;14.27;9.55;;;;;;;15.72;45.19;94193.41;4968110;28;20043;-94
2023/01/23 04:06:34;;;;;;;17.55;10.27;;;;;;;15.74;45.28;94194.44;4937562;28;20039;-93
2023/01/23 04:09:00;;;;;;;9.82;6.97;;;;;;;15.71;45.01;94202.81;4956558;28;20026;-93
2023/01/23 04:11:25;;;;;;;12.52;7.78;;;;;;;15.74;44.96;94210.03;4972525;28;20046;-93
2023/01/23 04:13:51;;;;;;;10.60;7.50;;;;;;;15.69;45.03;94205.25;4959410;28;20390;-93
2023/01/23 04:16:17;;;;;;;14.40;8.73;;;;;;;15.72;44.93;94198.84;4953735;28;20038;-93
2023/01/23 04:18:42;;;;;;;11.30;7.38;;;;;;;15.67;45.38;94200.25;4943044;28;20041;-93
2023/01/23 04:21:10;;;;;;;12.07;8.82;;;;;;;15.72;44.84;94193.41;4960590;28;20046;-93
2023/01/23 04:23:36;;;;;;;11.15;7.55;;;;;;;15.67;45.13;94202.25;4943111;28;20042;-93
2023/01/23 04:26:01;;;;;;;17.23;10.48;;;;;;;15.76;45.35;94188.50;4944011;28;20437;-94
2023/01/23 04:28:27;;;;;;;31.85;18.80;;;;;;;15.81;46.49;94193.25;4958276;28;20038;-93
2023/01/23 04:30:52;;;;;;;12.13;8.30;;;;;;;15.68;44.85;94198.28;4943154;28;20042;-93
2023/01/23 04:33:18;;;;;;;22.85;15.00;;;;;;;15.82;45.79;94202.94;4969667;28;20069;-94
2023/01/23 04:35:51;;;;;;;12.05;8.63;;;;;;;15.72;45.78;94217.94;4943760;28;20098;-93
2023/01/23 04:38:17;;;;;;;14.60;9.73;;;;;;;15.66;45.36;94215.13;4958490;28;20086;-93
2023/01/23 04:40:42;;;;;;;15.77;10.75;;;;;;;15.68;45.23;94212.66;4951350;28;20035;-93
2023/01/23 04:43:08;;;;;;;12.60;9.02;;;;;;;15.66;45.03;94208.91;4941368;28;20038;-93
2023/01/23 04:45:34;;;;;;;12.40;7.60;;;;;;;15.66;44.97;94219.81;4919372;29;20039;-93
2023/01/23 04:47:59;;;;;;;13.82;9.55;;;;;;;15.74;45.82;94202.59;4935360;29;20514;-93
2023/01/23 04:50:25;;;;;;;10.68;7.13;;;;;;;15.67;45.27;94218.59;4918852;28;20039;-93
2023/01/23 04:52:50;;;;;;;22.77;13.20;;;;;;;15.71;45.33;94219.16;4935199;29;20051;-94
2023/01/23 04:55:16;;;;;;;11.02;7.40;;;;;;;15.68;44.99;94222.81;4949928;28;20402;-93
2023/01/23 04:57:41;;;;;;;25.45;15.30;;;;;;;15.76;45.83;94223.94;4951024;29;20410;-93
2023/01/23 05:00:08;;;;;;;12.63;8.35;;;;;;;15.68;45.06;94233.72;4934564;28;20058;-93
2023/01/23 05:02:33;;;;;;;12.70;9.00;;;;;;;15.66;44.87;94236.16;4919368;29;20075;-93
2023/01/23 05:04:59;;;;;;;12.30;7.90;;;;;;;15.68;45.03;94247.34;4935092;29;20050;-93
2023/01/23 05:07:24;;;;;;;24.90;17.27;;;;;;;15.72;46.22;94253.38;4933862;28;20075;-93
2023/01/23 05:09:49;;;;;;;26.13;17.08;;;;;;;15.70;45.61;94253.84;4935129;29;20210;-94
2023/01/23 05:12:15;;;;;;;11.13;7.30;;;;;;;15.62;45.11;94251.97;4949843;28;20451;-93
2023/01/23 05:14:40;;;;;;;14.02;10.25;;;;;;;15.70;45.62;94250.34;4939347;28;20039;-94
2023/01/23 05:17:06;;;;;;;11.68;7.80;;;;;;;15.68;45.29;94239.94;4957407;28;20041;-93
2023/01/23 05:19:31;;;;;;;12.88;8.35;;;;;;;15.67;45.10;94245.84;4960835;28;20050;-93
2023/01/23 05:21:57;;;;;;;19.67;13.65;;;;;;;15.71;46.30;94241.72;4942445;28;20117;-94
2023/01/23 05:24:24;;;;;;;33.15;19.30;;;;;;;15.69;46.13;94246.88;4941408;28;20425;-93
2023/01/23 05:26:50;;;;;;;19.13;11.20;;;;;;;15.62;45.34;94230.16;4942308;28;20035;-93
2023/01/23 05:29:15;;;;;;;21.90;11.85;;;;;;;15.64;45.49;94241.34;4958964;28;20045;-92
2023/01/23 05:31:41;;;;;;;13.35;8.85;;;;;;;15.70;45.14;94251.13;4958410;28;20042;-92
2023/01/23 05:34:06;;;;;;;21.45;15.25;;;;;;;15.73;45.93;94265.78;4942858;28;20046;-94
2023/01/23 05:36:31;;;;;;;31.85;22.70;;;;;;;15.80;45.66;94262.66;4952693;28;20061;-90
2023/01/23 05:38:57;;;;;;;23.35;15.00;;;;;;;15.84;45.43;94276.09;4982753;28;20068;-90
2023/01/23 05:41:22;;;;;;;37.88;26.65;;;;;;;15.87;45.71;94284.06;4961987;28;20465;-90
2023/01/23 05:43:49;;;;;;;31.15;22.77;;;;;;;15.83;45.20;94283.50;4958441;28;20038;-91
2023/01/23 05:46:15;;;;;;;93.45;52.78;;;;;;;15.97;45.61;94280.03;4974384;28;20031;-92
2023/01/23 05:48:40;;;;;;;39.88;18.42;;;;;;;15.93;45.21;94282.19;4940204;28;20038;-89
2023/01/23 05:51:06;;;;;;;35.45;19.52;;;;;;;15.89;45.16;94281.63;4941651;28;20767;-94
2023/01/23 05:53:31;;;;;;;51.50;18.95;;;;;;;15.90;44.69;94287.84;4940545;28;20043;-95
2023/01/23 05:55:57;;;;;;;57.83;19.50;;;;;;;15.85;44.80;94289.25;4944656;28;20169;-93
2023/01/23 05:58:23;;;;;;;70.57;28.90;;;;;;;15.80;44.35;94289.19;4936656;28;20054;-93
2023/01/23 06:00:48;;;;;;;56.75;23.05;;;;;;;15.62;42.18;94285.41;4951290;28;20048;-95
2023/01/23 06:03:13;;;;;;;63.42;25.20;;;;;;;15.62;42.63;94282.69;4940829;28;20038;-92
2023/01/23 06:05:39;;;;;;;58.17;23.48;;;;;;;15.66;43.18;94274.31;4937198;28;20038;-94
2023/01/23 06:08:05;;;;;;;70.45;25.55;;;;;;;15.68;44.47;94280.06;4939478;28;20252;-93
2023/01/23 06:10:31;;;;;;;65.60;21.88;;;;;;;15.72;44.04;94275.94;4953453;28;20059;-90
2023/01/23 06:12:57;;;;;;;55.97;21.67;;;;;;;15.65;43.59;94275.53;4966418;28;20038;-93
2023/01/23 06:15:22;;;;;;;58.60;25.42;;;;;;;15.43;40.87;94281.34;4970847;28;20102;-91
2023/01/23 06:17:47;;;;;;;80.43;39.75;;;;;;;15.29;40.08;94291.03;4953093;28;20047;-90
2023/01/23 06:20:13;;;;;;;103.38;48.55;;;;;;;15.31;40.45;94296.78;4951252;28;20055;-93
2023/01/23 06:22:38;;;;;;;124.97;58.53;;;;;;;15.32;40.26;94292.06;4957196;28;20050;-96
2023/01/23 06:25:04;;;;;;;134.57;58.25;;;;;;;15.36;41.08;94298.84;4956995;28;20413;-91
2023/01/23 06:27:29;;;;;;;112.10;47.92;;;;;;;15.49;41.88;94297.81;4962446;28;20043;-91
2023/01/23 06:29:55;;;;;;;135.10;56.17;;;;;;;15.52;42.89;94305.78;4952417;28;20035;-92
2023/01/23 06:32:22;;;;;;;106.28;48.88;;;;;;;15.49;43.05;94304.00;4968908;28;20055;-91
2023/01/23 06:34:48;;;;;;;136.40;54.50;;;;;;;15.70;44.82;94299.44;4973279;28;20062;-90
2023/01/23 06:37:13;;;;;;;144.30;52.20;;;;;;;15.63;43.64;94297.81;4962877;28;20170;-90
2023/01/23 06:39:40;;;;;;;125.55;52.10;;;;;;;15.62;42.91;94314.66;4939031;28;20109;-92
2023/01/23 06:42:08;;;;;;;119.28;47.45;;;;;;;15.60;42.96;94315.13;4967734;28;20042;-90
2023/01/23 06:44:35;;;;;;;169.00;64.40;;;;;;;15.61;43.05;94316.63;4954171;28;20059;-90
2023/01/23 06:47:00;;;;;;;172.70;59.40;;;;;;;15.67;43.06;94319.44;4931242;28;20094;-91
2023/01/23 06:49:25;;;;;;;199.15;70.28;;;;;;;15.74;44.40;94329.97;4949248;28;20039;-89
2023/01/23 06:51:51;;;;;;;170.00;66.95;;;;;;;15.62;43.06;94320.84;4950677;28;20514;-90
2023/01/23 06:54:16;;;;;;;193.63;91.57;;;;;;;15.71;45.00;94318.03;4952920;28;20478;-91
2023/01/23 06:56:42;;;;;;;327.67;161.13;;;;;;;15.75;43.94;94323.31;4951726;28;20049;-88
2023/01/23 06:59:07;;;;;;;306.33;158.60;;;;;;;15.79;43.33;94323.88;4937952;28;20345;-87
2023/01/23 07:01:33;;;;;;;213.15;85.03;;;;;;;15.77;43.27;94332.50;4950697;28;20039;-87
2023/01/23 07:03:58;;;;;;;198.48;85.93;;;;;;;15.83;43.34;94320.94;4965835;28;20047;-88
2023/01/23 07:06:24;;;;;;;171.40;78.80;;;;;;;15.92;44.87;94313.41;4972672;28;20854;-90
2023/01/23 07:08:49;;;;;;;170.70;81.50;;;;;;;15.96;45.03;94316.69;4953645;28;20316;-87
2023/01/23 07:11:15;;;;;;;156.80;73.97;;;;;;;15.92;44.77;94329.00;4937565;28;20050;-90
2023/01/23 07:13:40;;;;;;;153.05;75.03;;;;;;;15.93;44.34;94327.78;4935057;28;20423;-89
2023/01/23 07:16:06;;;;;;;138.40;73.28;;;;;;;15.95;44.56;94330.81;4966210;28;20043;-88
2023/01/23 07:18:32;;;;;;;146.95;72.30;;;;;;;15.92;43.93;94332.50;4970761;28;20157;-91
2023/01/23 07:20:59;;;;;;;152.75;73.13;;;;;;;15.88;43.70;94333.91;4971576;28;20573;-91
2023/01/23 07:23:25;;;;;;;176.50;77.68;;;;;;;15.96;43.48;94330.34;4955207;28;20777;-89
2023/01/23 07:25:51;;;;;;;184.52;83.68;;;;;;;15.93;43.29;94336.72;4972671;28;20039;-90
2023/01/23 07:28:16;;;;;;;178.00;76.22;;;;;;;15.93;43.52;94327.78;4972229;28;20038;-89
2023/01/23 07:30:42;;;;;;;173.77;76.30;;;;;;;15.92;43.73;94334.47;4971352;28;20050;-89
2023/01/23 07:33:09;;;;;;;192.65;79.15;;;;;;;15.89;43.76;94330.72;4940585;28;20130;-89
2023/01/23 07:35:37;;;;;;;162.82;74.22;;;;;;;15.94;43.43;94337.47;4958722;28;20035;-89
2023/01/23 07:38:02;;;;;;;188.10;78.13;;;;;;;15.96;43.42;94333.06;4974196;28;20417;-90
2023/01/23 07:40:28;;;;;;;185.75;77.53;;;;;;;15.93;43.67;94342.19;4974830;28;20057;-89
2023/01/23 07:42:55;;;;;;;203.18;79.28;;;;;;;15.95;43.66;94331.56;4958139;28;20037;-89
2023/01/23 07:45:20;;;;;;;166.52;78.18;;;;;;;16.02;43.46;94342.06;4975606;28;20093;-91
2023/01/23 07:47:46;;;;;;;192.25;84.03;;;;;;;16.08;45.07;94331.25;4953661;28;20035;-92
2023/01/23 07:50:12;;;;;;;204.25;81.90;;;;;;;15.96;43.13;94326.84;4975606;28;20092;-90
2023/01/23 07:52:38;;;;;;;209.38;86.93;;;;;;;15.96;43.70;94329.56;4937852;28;20398;-91
2023/01/23 07:55:04;;;;;;;219.80;88.93;;;;;;;16.01;45.17;94331.66;4935462;28;20039;-91
2023/01/23 07:57:29;;;;;;;220.98;88.25;;;;;;;15.95;43.61;94330.81;4952322;28;20482;-92
2023/01/23 07:59:57;;;;;;;198.50;90.38;;;;;;;16.01;45.31;94334.38;4946809;28;20035;-92
2023/01/23 08:02:22;;;;;;;206.18;88.95;;;;;;;16.03;45.04;94324.47;4957432;28;20053;-90
2023/01/23 08:04:48;;;;;;;208.55;91.28;;;;;;;15.96;43.98;94327.59;4953467;28;20043;-90
2023/01/23 08:07:13;;;;;;;193.75;90.97;;;;;;;15.91;43.89;94320.09;4940953;28;20046;-91
2023/01/23 08:09:41;;;;;;;210.30;91.57;;;;;;;15.92;43.75;94316.13;4961676;28;20039;-92
2023/01/23 08:12:06;;;;;;;180.98;83.50;;;;;;;15.99;44.58;94317.72;4961196;28;20046;-91
2023/01/23 08:14:32;;;;;;;178.52;81.57;;;;;;;15.96;43.74;94308.50;4962502;28;20039;-91
2023/01/23 08:16:57;;;;;;;175.25;81.30;;;;;;;15.99;43.77;94306.81;4940141;28;20042;-91
2023/01/23 08:19:26;;;;;;;172.18;79.15;;;;;;;16.02;43.82;94314.06;4953210;28;20057;-91
2023/01/23 08:21:51;;;;;;;171.13;81.65;;;;;;;16.04;44.74;94315.06;4956366;28;20123;-88
2023/01/23 08:24:17;;;;;;;195.20;87.05;;;;;;;16.07;43.54;94316.09;4940452;28;20038;-93
2023/01/23 08:26:43;;;;;;;309.70;179.80;;;;;;;16.01;44.38;94315.28;4939337;29;20062;-92
2023/01/23 08:29:10;;;;;;;202.98;96.50;;;;;;;15.98;43.69;94314.25;4977227;28;20039;-93
2023/01/23 08:31:36;;;;;;;202.63;107.63;;;;;;;16.07;45.61;94305.94;4973378;28;20493;-93
2023/01/23 08:34:02;;;;;;;224.88;111.18;;;;;;;15.99;44.60;94321.22;4968951;28;20070;-91
2023/01/23 08:36:33;;;;;;;205.60;104.93;;;;;;;15.97;44.15;94320.19;4945447;28;20125;-91
2023/01/23 08:39:02;;;;;;;214.60;105.47;;;;;;;16.03;44.29;94316.28;4959279;28;20788;-92
2023/01/23 08:41:27;;;;;;;203.43;96.97;;;;;;;16.09;43.99;94313.66;4956491;28;20043;-93
2023/01/23 08:43:53;;;;;;;194.30;94.30;;;;;;;16.09;44.00;94317.13;4954988;28;20058;-93
2023/01/23 08:46:18;;;;;;;193.27;90.47;;;;;;;16.13;43.69;94325.13;4934582;28;20058;-91
2023/01/23 08:48:44;;;;;;;180.45;84.97;;;;;;;16.08;43.57;94325.78;4972705;28;20612;-91
2023/01/23 08:51:11;;;;;;;189.98;87.15;;;;;;;16.07;43.85;94318.81;4939650;28;20050;-93
2023/01/23 08:53:37;;;;;;;159.63;78.72;;;;;;;16.08;44.11;94328.50;4962913;28;20078;-93
2023/01/23 08:56:06;;;;;;;149.98;71.82;;;;;;;16.05;43.75;94330.22;4981032;28;20186;-92
2023/01/23 08:58:34;;;;;;;107.25;49.35;;;;;;;15.74;41.05;94329.97;4985205;28;20039;-93
2023/01/23 09:01:01;;;;;;;124.07;50.15;;;;;;;15.71;41.32;94337.13;4952031;29;20035;-93
2023/01/23 09:03:27;;;;;;;115.05;54.20;;;;;;;15.79;41.62;94332.03;4919644;29;20071;-94
2023/01/23 09:05:58;;;;;;;144.10;63.50;;;;;;;15.85;44.56;94335.59;4906680;29;20040;-93
2023/01/23 09:08:25;;;;;;;133.07;60.50;;;;;;;15.93;44.54;94335.97;4905958;29;20048;-92
2023/01/23 09:10:51;;;;;;;132.98;62.58;;;;;;;15.99;43.33;94353.19;4904141;29;20043;-93
2023/01/23 09:13:18;;;;;;;125.90;59.80;;;;;;;15.95;45.09;94344.44;4912288;29;20044;-91
2023/01/23 09:15:43;;;;;;;109.47;54.92;;;;;;;15.82;42.34;94333.06;4908302;29;20051;-90
2023/01/23 09:18:20;;;;;;;144.40;67.93;;;;;;;15.74;42.38;94336.19;4910196;29;20052;-89
2023/01/23 09:20:48;;;;;;;130.65;61.83;;;;;;;15.75;42.08;94354.03;4909862;29;20050;-91
2023/01/23 09:23:13;;;;;;;159.30;73.57;;;;;;;15.76;42.48;94349.34;4919719;29;20131;-90
2023/01/23 09:25:39;;;;;;;147.15;70.05;;;;;;;15.83;43.53;94343.50;4904738;29;20148;-89
2023/01/23 09:28:04;;;;;;;147.50;70.90;;;;;;;15.81;43.67;94342.44;4931646;28;20043;-89
2023/01/23 09:30:30;;;;;;;180.45;84.43;;;;;;;15.84;43.70;94342.25;4924259;29;20040;-91
2023/01/23 09:32:57;;;;;;;197.75;91.15;;;;;;;15.86;44.36;94337.09;4926371;28;20044;-92
2023/01/23 09:35:23;;;;;;;240.70;111.80;;;;;;;15.86;43.77;94328.16;4944050;28;20058;-89
2023/01/23 09:38:03;;;;;;;228.43;108.78;;;;;;;15.88;44.30;94331.94;4941797;29;20035;-91
2023/01/23 09:40:34;;;;;;;219.25;95.57;;;;;;;15.84;43.85;94323.19;4949644;28;20054;-89
2023/01/23 09:43:08;;;;;;;233.32;96.72;;;;;;;15.78;43.74;94330.53;4939282;29;20103;-91
2023/01/23 09:45:33;;;;;;;276.38;124.05;;;;;;;15.89;44.94;94332.69;4948149;28;20054;-90
2023/01/23 09:48:05;;;;;;;285.02;132.30;;;;;;;15.89;43.72;94324.50;4926843;29;20122;-88
2023/01/23 09:50:32;;;;;;;263.73;125.50;;;;;;;15.91;44.07;94330.22;4965392;28;20054;-88
2023/01/23 09:53:00;;;;;;;251.30;116.78;;;;;;;16.01;45.25;94320.72;4953579;28;20042;-88
2023/01/23 09:55:39;;;;;;;242.10;119.30;;;;;;;16.00;44.26;94324.69;4938889;28;20046;-90
2023/01/23 09:58:04;;;;;;;246.02;121.22;;;;;;;16.00;44.05;94324.69;4940034;28;20888;-89
2023/01/23 10:00:35;;;;;;;230.05;124.13;;;;;;;16.00;45.86;94311.81;4945287;29;20036;-91
2023/01/23 10:03:02;;;;;;;288.13;141.65;;;;;;;15.99;44.42;94313.03;4949689;29;20039;-88
2023/01/23 10:05:35;;;;;;;294.40;152.10;;;;;;;15.89;43.71;94310.88;4933411;29;20050;-86
2023/01/23 10:08:14;;;;;;;285.38;143.27;;;;;;;15.89;43.51;94316.31;4919661;28;20046;-92
2023/01/23 10:10:52;;;;;;;322.98;162.18;;;;;;;15.97;44.15;94314.72;4943323;29;20063;-91
2023/01/23 10:13:41;;;;;;;338.98;178.98;;;;;;;15.91;44.05;94308.41;4934856;28;20092;-88
2023/01/23 10:16:31;;;;;;;348.85;185.23;;;;;;;15.96;43.81;94311.25;4953162;28;20035;-89
2023/01/23 10:19:13;;;;;;;339.60;191.55;;;;;;;16.04;44.97;94317.03;4970549;28;20069;-87
2023/01/23 10:21:51;;;;;;;307.48;176.02;;;;;;;16.01;44.33;94324.22;4951879;28;20194;-89
2023/01/23 10:24:35;;;;;;;312.85;175.57;;;;;;;16.00;44.25;94316.50;4945916;28;20133;-87
2023/01/23 10:27:09;;;;;;;312.08;182.73;;;;;;;16.02;44.05;94316.78;4959914;28;20042;-86
2023/01/23 10:29:37;;;;;;;310.10;177.00;;;;;;;16.09;44.47;94322.59;4937724;28;20150;-88
2023/01/23 10:32:04;;;;;;;296.13;162.70;;;;;;;16.07;43.80;94325.03;4930346;28;20129;-88
2023/01/23 10:34:46;;;;;;;284.65;164.80;;;;;;;16.09;44.26;94317.13;4953989;28;20103;-88
2023/01/23 10:37:39;;;;;;;279.92;157.40;;;;;;;16.15;44.92;94321.91;4944748;28;20051;-93
2023/01/23 10:40:14;;;;;;;267.17;150.50;;;;;;;15.99;44.13;94310.31;4933395;28;20085;-91
2023/01/23 10:42:40;;;;;;;261.63;145.43;;;;;;;15.93;43.39;94323.09;4940438;28;20139;-88
2023/01/23 10:45:06;;;;;;;286.92;156.18;;;;;;;15.95;43.85;94314.44;4955081;28;20031;-89
2023/01/23 10:47:40;;;;;;;278.80;162.48;;;;;;;15.97;44.01;94322.91;4986003;28;20042;-88
2023/01/23 10:50:06;;;;;;;289.25;155.90;;;;;;;16.09;44.75;94321.84;4970682;28;20030;-90
2023/01/23 10:52:36;;;;;;;283.83;158.07;;;;;;;16.08;44.35;94326.53;4935831;28;20697;-89
2023/01/23 10:55:03;;;;;;;299.35;168.85;;;;;;;16.10;44.50;94326.06;4963973;28;20058;-89
2023/01/23 10:57:44;;;;;;;256.95;151.82;;;;;;;16.19;44.50;94336.13;4959547;28;20039;-89
2023/01/23 11:00:21;;;;;;;;;;;;;;;16.15;44.38;94339.03;4953129;28;20192;-88
2023/01/23 11:02:49;;;;;;;290.38;157.77;;;;;;;16.10;43.89;94328.78;4981864;28;19940;-91
2023/01/23 11:05:35;;;;;;;277.50;153.27;;;;;;;16.06;44.70;94320.03;4970683;28;20043;-89
2023/01/23 11:08:02;;;;;;;268.60;154.32;;;;;;;16.11;45.14;94324.84;4969725;28;20447;-91
2023/01/23 11:10:27;;;;;;;268.70;159.88;;;;;;;16.05;44.39;94332.19;4970728;28;20054;-90
2023/01/23 11:12:54;;;;;;;276.25;164.20;;;;;;;16.05;44.50;94341.13;4942963;28;20042;-90
2023/01/23 11:15:27;;;;;;;412.25;302.17;;;;;;;16.10;44.74;94323.34;4956285;28;20042;-88
2023/01/23 11:17:55;;;;;;;376.30;168.40;;;;;;;16.11;43.93;94308.47;4967485;28;20039;-89
2023/01/23 11:20:23;;;;;;;362.58;205.45;;;;;;;16.09;44.25;94308.94;4941408;28;20039;-87